sensor_id;sensor_type;location;lat;lon;timestamp;P1;durP1;ratioP1;P2;durP2;ratioP2
23578;SDS011;11967;50.852;4.400;2023-01-19T00:01:36;19.75;;;12.82;;
23578;SDS011;11967;50.852;4.400;2023-01-19T00:04:04;19.02;;;12.63;;
23578;SDS011;11967;50.852;4.400;2023-01-19T00:06:30;16.88;;;12.80;;
23578;SDS011;11967;50.852;4.400;2023-01-19T00:08:56;18.27;;;12.93;;
23578;SDS011;11967;50.852;4.400;2023-01-19T00:11:22;16.85;;;12.98;;
23578;SDS011;11967;50.852;4.400;2023-01-19T00:13:47;19.13;;;13.10;;
23578;SDS011;11967;50.852;4.400;2023-01-19T00:16:17;20.52;;;12.88;;
23578;SDS011;11967;50.852;4.400;2023-01-19T00:18:45;19.85;;;12.35;;
23578;SDS011;11967;50.852;4.400;2023-01-19T00:21:12;20.70;;;12.50;;
23578;SDS011;11967;50.852;4.400;2023-01-19T00:23:41;18.20;;;12.63;;
23578;SDS011;11967;50.852;4.400;2023-01-19T00:26:08;19.63;;;13.05;;
23578;SDS011;11967;50.852;4.400;2023-01-19T00:28:34;19.13;;;12.50;;
23578;SDS011;11967;50.852;4.400;2023-01-19T00:31:00;17.20;;;12.85;;
23578;SDS011;11967;50.852;4.400;2023-01-19T00:33:26;19.85;;;13.43;;
23578;SDS011;11967;50.852;4.400;2023-01-19T00:35:52;23.75;;;13.07;;
23578;SDS011;11967;50.852;4.400;2023-01-19T00:38:21;20.17;;;13.05;;
23578;SDS011;11967;50.852;4.400;2023-01-19T00:40:49;20.77;;;13.18;;
23578;SDS011;11967;50.852;4.400;2023-01-19T00:43:14;17.42;;;12.77;;
23578;SDS011;11967;50.852;4.400;2023-01-19T00:45:40;17.98;;;12.70;;
23578;SDS011;11967;50.852;4.400;2023-01-19T00:48:06;22.45;;;12.95;;
23578;SDS011;11967;50.852;4.400;2023-01-19T00:50:32;19.98;;;12.63;;
23578;SDS011;11967;50.852;4.400;2023-01-19T00:52:58;16.80;;;12.20;;
23578;SDS011;11967;50.852;4.400;2023-01-19T00:55:25;22.35;;;13.38;;
23578;SDS011;11967;50.852;4.400;2023-01-19T00:57:54;19.48;;;12.90;;
23578;SDS011;11967;50.852;4.400;2023-01-19T01:00:20;20.77;;;12.90;;
23578;SDS011;11967;50.852;4.400;2023-01-19T01:02:47;20.15;;;13.32;;
23578;SDS011;11967;50.852;4.400;2023-01-19T01:05:13;19.27;;;13.07;;
23578;SDS011;11967;50.852;4.400;2023-01-19T01:07:40;18.98;;;12.95;;
23578;SDS011;11967;50.852;4.400;2023-01-19T01:10:15;22.13;;;13.70;;
23578;SDS011;11967;50.852;4.400;2023-01-19T01:12:43;21.27;;;13.50;;
23578;SDS011;11967;50.852;4.400;2023-01-19T01:15:09;20.13;;;13.82;;
23578;SDS011;11967;50.852;4.400;2023-01-19T01:17:37;19.55;;;13.43;;
23578;SDS011;11967;50.852;4.400;2023-01-19T01:20:11;18.05;;;12.93;;
23578;SDS011;11967;50.852;4.400;2023-01-19T01:22:40;21.10;;;13.43;;
23578;SDS011;11967;50.852;4.400;2023-01-19T01:25:09;20.42;;;13.88;;
23578;SDS011;11967;50.852;4.400;2023-01-19T01:27:46;23.25;;;14.30;;
23578;SDS011;11967;50.852;4.400;2023-01-19T01:30:13;23.38;;;14.73;;
23578;SDS011;11967;50.852;4.400;2023-01-19T01:32:39;22.50;;;14.30;;
23578;SDS011;11967;50.852;4.400;2023-01-19T01:35:05;21.75;;;14.50;;
23578;SDS011;11967;50.852;4.400;2023-01-19T01:37:33;21.90;;;13.95;;
23578;SDS011;11967;50.852;4.400;2023-01-19T01:39:59;22.92;;;14.45;;
23578;SDS011;11967;50.852;4.400;2023-01-19T01:42:26;21.92;;;14.32;;
23578;SDS011;11967;50.852;4.400;2023-01-19T01:44:58;20.35;;;14.52;;
23578;SDS011;11967;50.852;4.400;2023-01-19T01:47:37;24.27;;;14.30;;
23578;SDS011;11967;50.852;4.400;2023-01-19T01:50:27;24.45;;;13.57;;
23578;SDS011;11967;50.852;4.400;2023-01-19T01:53:01;24.65;;;13.30;;
23578;SDS011;11967;50.852;4.400;2023-01-19T01:55:35;20.63;;;13.88;;
23578;SDS011;11967;50.852;4.400;2023-01-19T01:58:05;22.80;;;13.75;;
23578;SDS011;11967;50.852;4.400;2023-01-19T02:00:40;28.45;;;13.95;;
23578;SDS011;11967;50.852;4.400;2023-01-19T02:03:27;21.60;;;12.40;;
23578;SDS011;11967;50.852;4.400;2023-01-19T02:05:54;23.17;;;13.80;;
23578;SDS011;11967;50.852;4.400;2023-01-19T02:08:31;19.80;;;13.18;;
23578;SDS011;11967;50.852;4.400;2023-01-19T02:11:20;26.10;;;13.35;;
23578;SDS011;11967;50.852;4.400;2023-01-19T02:14:05;18.73;;;12.95;;
23578;SDS011;11967;50.852;4.400;2023-01-19T02:16:30;20.52;;;12.70;;
23578;SDS011;11967;50.852;4.400;2023-01-19T02:18:57;23.48;;;13.25;;
23578;SDS011;11967;50.852;4.400;2023-01-19T02:23:54;23.35;;;13.07;;
23578;SDS011;11967;50.852;4.400;2023-01-19T02:26:25;21.80;;;13.35;;
23578;SDS011;11967;50.852;4.400;2023-01-19T02:29:02;23.23;;;12.95;;
23578;SDS011;11967;50.852;4.400;2023-01-19T02:31:31;23.63;;;13.65;;
23578;SDS011;11967;50.852;4.400;2023-01-19T02:33:59;25.42;;;13.45;;
23578;SDS011;11967;50.852;4.400;2023-01-19T02:36:27;23.35;;;13.40;;
23578;SDS011;11967;50.852;4.400;2023-01-19T02:39:20;22.02;;;12.95;;
23578;SDS011;11967;50.852;4.400;2023-01-19T02:41:54;27.83;;;13.52;;
23578;SDS011;11967;50.852;4.400;2023-01-19T02:44:25;24.58;;;13.00;;
23578;SDS011;11967;50.852;4.400;2023-01-19T02:46:53;21.00;;;13.02;;
23578;SDS011;11967;50.852;4.400;2023-01-19T02:49:19;23.70;;;13.63;;
23578;SDS011;11967;50.852;4.400;2023-01-19T02:51:44;19.70;;;12.60;;
23578;SDS011;11967;50.852;4.400;2023-01-19T03:11:07;25.13;;;12.73;;
23578;SDS011;11967;50.852;4.400;2023-01-19T03:19:10;25.50;;;12.48;;
23578;SDS011;11967;50.852;4.400;2023-01-19T03:21:57;21.15;;;12.52;;
23578;SDS011;11967;50.852;4.400;2023-01-19T03:24:25;24.17;;;12.88;;
23578;SDS011;11967;50.852;4.400;2023-01-19T03:26:57;24.75;;;12.80;;
23578;SDS011;11967;50.852;4.400;2023-01-19T03:29:27;22.55;;;13.48;;
23578;SDS011;11967;50.852;4.400;2023-01-19T03:31:56;25.25;;;13.02;;
23578;SDS011;11967;50.852;4.400;2023-01-19T03:34:25;21.77;;;12.70;;
23578;SDS011;11967;50.852;4.400;2023-01-19T03:36:53;23.50;;;13.15;;
23578;SDS011;11967;50.852;4.400;2023-01-19T03:39:26;23.40;;;13.52;;
23578;SDS011;11967;50.852;4.400;2023-01-19T03:42:00;25.38;;;14.30;;
23578;SDS011;11967;50.852;4.400;2023-01-19T03:44:29;21.98;;;12.60;;
23578;SDS011;11967;50.852;4.400;2023-01-19T03:46:58;22.67;;;13.55;;
23578;SDS011;11967;50.852;4.400;2023-01-19T03:49:24;23.70;;;13.73;;
23578;SDS011;11967;50.852;4.400;2023-01-19T03:51:50;23.40;;;13.13;;
23578;SDS011;11967;50.852;4.400;2023-01-19T03:54:20;21.15;;;13.07;;
23578;SDS011;11967;50.852;4.400;2023-01-19T03:56:46;25.20;;;14.40;;
23578;SDS011;11967;50.852;4.400;2023-01-19T03:59:11;28.33;;;14.23;;
23578;SDS011;11967;50.852;4.400;2023-01-19T04:01:41;24.85;;;13.75;;
23578;SDS011;11967;50.852;4.400;2023-01-19T04:04:08;29.98;;;14.02;;
23578;SDS011;11967;50.852;4.400;2023-01-19T04:06:34;26.13;;;14.05;;
23578;SDS011;11967;50.852;4.400;2023-01-19T04:09:00;24.20;;;14.25;;
23578;SDS011;11967;50.852;4.400;2023-01-19T04:11:26;27.35;;;14.50;;
23578;SDS011;11967;50.852;4.400;2023-01-19T04:13:52;29.05;;;14.75;;
23578;SDS011;11967;50.852;4.400;2023-01-19T04:16:17;33.30;;;15.02;;
23578;SDS011;11967;50.852;4.400;2023-01-19T04:18:45;30.25;;;15.68;;
23578;SDS011;11967;50.852;4.400;2023-01-19T04:21:11;28.90;;;14.93;;
23578;SDS011;11967;50.852;4.400;2023-01-19T04:23:36;27.88;;;15.70;;
23578;SDS011;11967;50.852;4.400;2023-01-19T04:26:03;28.35;;;15.68;;
23578;SDS011;11967;50.852;4.400;2023-01-19T04:28:30;31.35;;;15.07;;
23578;SDS011;11967;50.852;4.400;2023-01-19T04:30:57;28.65;;;16.27;;
23578;SDS011;11967;50.852;4.400;2023-01-19T04:33:23;30.58;;;17.02;;
23578;SDS011;11967;50.852;4.400;2023-01-19T04:35:49;29.23;;;16.13;;
23578;SDS011;11967;50.852;4.400;2023-01-19T04:38:16;28.83;;;16.35;;
23578;SDS011;11967;50.852;4.400;2023-01-19T04:40:43;35.42;;;18.33;;
23578;SDS011;11967;50.852;4.400;2023-01-19T04:43:09;32.83;;;17.95;;
23578;SDS011;11967;50.852;4.400;2023-01-19T04:45:35;39.40;;;18.30;;
23578;SDS011;11967;50.852;4.400;2023-01-19T04:48:00;34.08;;;17.98;;
23578;SDS011;11967;50.852;4.400;2023-01-19T04:50:28;30.90;;;17.50;;
23578;SDS011;11967;50.852;4.400;2023-01-19T04:52:54;32.70;;;18.73;;
23578;SDS011;11967;50.852;4.400;2023-01-19T04:55:20;33.20;;;18.00;;
23578;SDS011;11967;50.852;4.400;2023-01-19T04:57:46;34.05;;;18.60;;
23578;SDS011;11967;50.852;4.400;2023-01-19T05:00:12;33.58;;;19.13;;
23578;SDS011;11967;50.852;4.400;2023-01-19T05:02:38;35.03;;;18.73;;
23578;SDS011;11967;50.852;4.400;2023-01-19T05:05:06;36.92;;;19.95;;
23578;SDS011;11967;50.852;4.400;2023-01-19T05:07:32;42.00;;;20.77;;
23578;SDS011;11967;50.852;4.400;2023-01-19T05:09:58;37.38;;;19.67;;
23578;SDS011;11967;50.852;4.400;2023-01-19T05:12:23;41.15;;;20.92;;
23578;SDS011;11967;50.852;4.400;2023-01-19T05:14:49;36.45;;;20.13;;
23578;SDS011;11967;50.852;4.400;2023-01-19T05:17:15;39.70;;;21.30;;
23578;SDS011;11967;50.852;4.400;2023-01-19T05:19:40;39.85;;;21.10;;
23578;SDS011;11967;50.852;4.400;2023-01-19T05:22:06;37.78;;;20.25;;
23578;SDS011;11967;50.852;4.400;2023-01-19T05:24:32;40.38;;;20.60;;
23578;SDS011;11967;50.852;4.400;2023-01-19T05:26:57;38.60;;;21.15;;
23578;SDS011;11967;50.852;4.400;2023-01-19T05:29:23;44.47;;;21.80;;
23578;SDS011;11967;50.852;4.400;2023-01-19T05:31:48;43.17;;;21.50;;
23578;SDS011;11967;50.852;4.400;2023-01-19T05:34:14;38.80;;;20.27;;
23578;SDS011;11967;50.852;4.400;2023-01-19T05:36:40;43.25;;;21.35;;
23578;SDS011;11967;50.852;4.400;2023-01-19T05:39:06;38.30;;;20.20;;
23578;SDS011;11967;50.852;4.400;2023-01-19T05:41:32;38.70;;;20.88;;
23578;SDS011;11967;50.852;4.400;2023-01-19T05:43:58;35.28;;;19.60;;
23578;SDS011;11967;50.852;4.400;2023-01-19T05:46:23;37.10;;;20.38;;
23578;SDS011;11967;50.852;4.400;2023-01-19T05:48:49;38.17;;;20.27;;
23578;SDS011;11967;50.852;4.400;2023-01-19T05:51:15;39.55;;;20.08;;
23578;SDS011;11967;50.852;4.400;2023-01-19T05:53:41;39.35;;;19.98;;
23578;SDS011;11967;50.852;4.400;2023-01-19T05:56:07;37.72;;;20.17;;
23578;SDS011;11967;50.852;4.400;2023-01-19T05:58:35;43.70;;;20.73;;
23578;SDS011;11967;50.852;4.400;2023-01-19T06:01:03;36.22;;;19.73;;
23578;SDS011;11967;50.852;4.400;2023-01-19T06:03:31;38.88;;;20.17;;
23578;SDS011;11967;50.852;4.400;2023-01-19T06:05:58;37.13;;;19.33;;
23578;SDS011;11967;50.852;4.400;2023-01-19T06:08:23;39.38;;;19.33;;
23578;SDS011;11967;50.852;4.400;2023-01-19T06:10:49;38.40;;;19.60;;
23578;SDS011;11967;50.852;4.400;2023-01-19T06:13:15;34.78;;;18.13;;
23578;SDS011;11967;50.852;4.400;2023-01-19T06:15:41;33.13;;;18.00;;
23578;SDS011;11967;50.852;4.400;2023-01-19T06:18:11;32.72;;;16.83;;
23578;SDS011;11967;50.852;4.400;2023-01-19T06:20:39;37.58;;;18.50;;
23578;SDS011;11967;50.852;4.400;2023-01-19T06:23:05;35.80;;;16.75;;
23578;SDS011;11967;50.852;4.400;2023-01-19T06:25:30;36.40;;;18.48;;
23578;SDS011;11967;50.852;4.400;2023-01-19T06:27:57;36.40;;;19.17;;
23578;SDS011;11967;50.852;4.400;2023-01-19T06:30:23;36.17;;;18.75;;
23578;SDS011;11967;50.852;4.400;2023-01-19T06:32:48;37.30;;;18.08;;
23578;SDS011;11967;50.852;4.400;2023-01-19T06:35:14;38.97;;;19.08;;
23578;SDS011;11967;50.852;4.400;2023-01-19T06:37:40;41.40;;;19.60;;
23578;SDS011;11967;50.852;4.400;2023-01-19T06:40:06;37.85;;;18.98;;
23578;SDS011;11967;50.852;4.400;2023-01-19T06:42:32;39.03;;;19.15;;
23578;SDS011;11967;50.852;4.400;2023-01-19T06:44:58;37.50;;;18.70;;
23578;SDS011;11967;50.852;4.400;2023-01-19T06:47:24;35.10;;;18.60;;
23578;SDS011;11967;50.852;4.400;2023-01-19T06:49:49;37.38;;;18.65;;
23578;SDS011;11967;50.852;4.400;2023-01-19T06:52:16;42.00;;;19.40;;
23578;SDS011;11967;50.852;4.400;2023-01-19T06:54:43;37.13;;;18.90;;
23578;SDS011;11967;50.852;4.400;2023-01-19T06:57:09;34.78;;;18.17;;
23578;SDS011;11967;50.852;4.400;2023-01-19T06:59:36;39.30;;;18.75;;
23578;SDS011;11967;50.852;4.400;2023-01-19T07:02:02;36.35;;;19.08;;
23578;SDS011;11967;50.852;4.400;2023-01-19T07:04:28;35.15;;;18.27;;
23578;SDS011;11967;50.852;4.400;2023-01-19T07:06:53;35.58;;;18.65;;
23578;SDS011;11967;50.852;4.400;2023-01-19T07:09:19;38.67;;;18.92;;
23578;SDS011;11967;50.852;4.400;2023-01-19T07:11:45;37.78;;;18.38;;
23578;SDS011;11967;50.852;4.400;2023-01-19T07:14:12;38.08;;;19.15;;
23578;SDS011;11967;50.852;4.400;2023-01-19T07:16:38;38.88;;;19.48;;
23578;SDS011;11967;50.852;4.400;2023-01-19T07:19:03;38.17;;;18.75;;
23578;SDS011;11967;50.852;4.400;2023-01-19T07:21:29;41.33;;;19.45;;
23578;SDS011;11967;50.852;4.400;2023-01-19T07:23:54;38.13;;;19.67;;
23578;SDS011;11967;50.852;4.400;2023-01-19T07:26:20;34.22;;;19.20;;
23578;SDS011;11967;50.852;4.400;2023-01-19T07:28:49;42.72;;;19.90;;
23578;SDS011;11967;50.852;4.400;2023-01-19T07:31:16;44.22;;;19.70;;
23578;SDS011;11967;50.852;4.400;2023-01-19T07:33:41;38.58;;;19.08;;
23578;SDS011;11967;50.852;4.400;2023-01-19T07:36:07;41.13;;;19.45;;
23578;SDS011;11967;50.852;4.400;2023-01-19T07:38:33;42.78;;;19.88;;
23578;SDS011;11967;50.852;4.400;2023-01-19T07:41:00;34.45;;;18.35;;
23578;SDS011;11967;50.852;4.400;2023-01-19T07:43:26;37.55;;;18.10;;
23578;SDS011;11967;50.852;4.400;2023-01-19T07:45:54;48.95;;;19.98;;
23578;SDS011;11967;50.852;4.400;2023-01-19T07:48:21;35.60;;;18.40;;
23578;SDS011;11967;50.852;4.400;2023-01-19T07:50:46;38.03;;;19.45;;
23578;SDS011;11967;50.852;4.400;2023-01-19T07:53:12;39.85;;;19.13;;
23578;SDS011;11967;50.852;4.400;2023-01-19T07:55:38;40.17;;;19.80;;
23578;SDS011;11967;50.852;4.400;2023-01-19T07:58:03;40.47;;;19.63;;
23578;SDS011;11967;50.852;4.400;2023-01-19T08:00:31;42.28;;;19.20;;
23578;SDS011;11967;50.852;4.400;2023-01-19T08:02:58;37.28;;;19.27;;
23578;SDS011;11967;50.852;4.400;2023-01-19T08:05:25;37.58;;;20.10;;
23578;SDS011;11967;50.852;4.400;2023-01-19T08:07:53;36.80;;;19.65;;
23578;SDS011;11967;50.852;4.400;2023-01-19T08:10:21;45.25;;;19.58;;
23578;SDS011;11967;50.852;4.400;2023-01-19T08:12:50;39.67;;;19.45;;
23578;SDS011;11967;50.852;4.400;2023-01-19T08:15:20;39.05;;;19.95;;
23578;SDS011;11967;50.852;4.400;2023-01-19T08:20:21;38.67;;;19.77;;
23578;SDS011;11967;50.852;4.400;2023-01-19T08:22:47;44.78;;;20.60;;
23578;SDS011;11967;50.852;4.400;2023-01-19T08:25:13;41.45;;;21.33;;
23578;SDS011;11967;50.852;4.400;2023-01-19T08:27:39;41.83;;;19.60;;
23578;SDS011;11967;50.852;4.400;2023-01-19T08:30:05;44.53;;;20.75;;
23578;SDS011;11967;50.852;4.400;2023-01-19T08:32:31;38.25;;;20.83;;
23578;SDS011;11967;50.852;4.400;2023-01-19T08:34:56;40.85;;;20.52;;
23578;SDS011;11967;50.852;4.400;2023-01-19T08:37:23;41.20;;;20.52;;
23578;SDS011;11967;50.852;4.400;2023-01-19T08:39:48;41.45;;;20.17;;
23578;SDS011;11967;50.852;4.400;2023-01-19T08:42:14;45.05;;;21.27;;
23578;SDS011;11967;50.852;4.400;2023-01-19T08:44:40;44.90;;;20.65;;
23578;SDS011;11967;50.852;4.400;2023-01-19T08:47:05;41.00;;;20.63;;
23578;SDS011;11967;50.852;4.400;2023-01-19T08:49:33;44.42;;;21.27;;
23578;SDS011;11967;50.852;4.400;2023-01-19T08:51:59;43.97;;;21.60;;
23578;SDS011;11967;50.852;4.400;2023-01-19T08:54:27;46.60;;;20.95;;
23578;SDS011;11967;50.852;4.400;2023-01-19T08:56:53;40.97;;;20.23;;
23578;SDS011;11967;50.852;4.400;2023-01-19T08:59:19;40.20;;;20.60;;
23578;SDS011;11967;50.852;4.400;2023-01-19T09:01:45;44.97;;;21.25;;
23578;SDS011;11967;50.852;4.400;2023-01-19T09:04:10;45.13;;;20.98;;
23578;SDS011;11967;50.852;4.400;2023-01-19T09:06:36;37.60;;;19.70;;
23578;SDS011;11967;50.852;4.400;2023-01-19T09:09:02;50.90;;;21.88;;
23578;SDS011;11967;50.852;4.400;2023-01-19T09:11:28;45.15;;;21.05;;
23578;SDS011;11967;50.852;4.400;2023-01-19T09:13:54;44.88;;;21.60;;
23578;SDS011;11967;50.852;4.400;2023-01-19T09:16:20;44.63;;;21.95;;
23578;SDS011;11967;50.852;4.400;2023-01-19T09:18:45;45.17;;;21.00;;
23578;SDS011;11967;50.852;4.400;2023-01-19T09:21:11;45.97;;;20.80;;
23578;SDS011;11967;50.852;4.400;2023-01-19T09:23:37;45.20;;;19.48;;
23578;SDS011;11967;50.852;4.400;2023-01-19T09:26:03;45.05;;;20.15;;
23578;SDS011;11967;50.852;4.400;2023-01-19T09:28:30;47.42;;;21.13;;
23578;SDS011;11967;50.852;4.400;2023-01-19T09:30:56;46.30;;;19.90;;
23578;SDS011;11967;50.852;4.400;2023-01-19T09:33:22;41.35;;;19.13;;
23578;SDS011;11967;50.852;4.400;2023-01-19T09:35:48;47.30;;;20.60;;
23578;SDS011;11967;50.852;4.400;2023-01-19T09:38:16;48.15;;;20.65;;
23578;SDS011;11967;50.852;4.400;2023-01-19T09:40:49;42.75;;;19.58;;
23578;SDS011;11967;50.852;4.400;2023-01-19T09:43:20;40.05;;;19.23;;
23578;SDS011;11967;50.852;4.400;2023-01-19T09:46:00;45.70;;;18.75;;
23578;SDS011;11967;50.852;4.400;2023-01-19T09:51:22;44.08;;;19.05;;
23578;SDS011;11967;50.852;4.400;2023-01-19T09:53:54;47.78;;;18.73;;
23578;SDS011;11967;50.852;4.400;2023-01-19T09:56:29;46.85;;;19.88;;
23578;SDS011;11967;50.852;4.400;2023-01-19T09:58:56;43.03;;;19.10;;
23578;SDS011;11967;50.852;4.400;2023-01-19T10:01:25;42.58;;;19.17;;
23578;SDS011;11967;50.852;4.400;2023-01-19T10:04:04;43.33;;;18.42;;
23578;SDS011;11967;50.852;4.400;2023-01-19T10:06:35;41.28;;;18.08;;
23578;SDS011;11967;50.852;4.400;2023-01-19T10:09:48;37.45;;;18.20;;
23578;SDS011;11967;50.852;4.400;2023-01-19T10:12:10;42.17;;;18.23;;
23578;SDS011;11967;50.852;4.400;2023-01-19T10:14:56;36.50;;;18.60;;
23578;SDS011;11967;50.852;4.400;2023-01-19T10:17:50;41.00;;;18.90;;
23578;SDS011;11967;50.852;4.400;2023-01-19T10:20:38;41.83;;;18.60;;
23578;SDS011;11967;50.852;4.400;2023-01-19T10:23:14;43.67;;;18.48;;
23578;SDS011;11967;50.852;4.400;2023-01-19T10:25:47;46.88;;;18.83;;
23578;SDS011;11967;50.852;4.400;2023-01-19T10:28:13;47.45;;;17.80;;
23578;SDS011;11967;50.852;4.400;2023-01-19T10:30:44;40.85;;;17.80;;
23578;SDS011;11967;50.852;4.400;2023-01-19T10:33:12;41.17;;;17.90;;
23578;SDS011;11967;50.852;4.400;2023-01-19T10:35:38;36.95;;;17.98;;
23578;SDS011;11967;50.852;4.400;2023-01-19T10:38:05;43.13;;;18.10;;
23578;SDS011;11967;50.852;4.400;2023-01-19T10:40:43;41.13;;;17.08;;
23578;SDS011;11967;50.852;4.400;2023-01-19T10:46:06;36.90;;;16.75;;
23578;SDS011;11967;50.852;4.400;2023-01-19T10:48:44;36.03;;;17.73;;
23578;SDS011;11967;50.852;4.400;2023-01-19T10:51:13;42.13;;;17.38;;
23578;SDS011;11967;50.852;4.400;2023-01-19T10:53:39;36.58;;;17.30;;
23578;SDS011;11967;50.852;4.400;2023-01-19T10:56:21;35.70;;;16.98;;
23578;SDS011;11967;50.852;4.400;2023-01-19T10:58:49;40.35;;;16.95;;
23578;SDS011;11967;50.852;4.400;2023-01-19T11:01:19;35.80;;;17.17;;
23578;SDS011;11967;50.852;4.400;2023-01-19T11:03:50;39.83;;;18.10;;
23578;SDS011;11967;50.852;4.400;2023-01-19T11:06:18;40.67;;;18.40;;
23578;SDS011;11967;50.852;4.400;2023-01-19T11:09:16;42.60;;;18.60;;
23578;SDS011;11967;50.852;4.400;2023-01-19T11:11:49;41.88;;;17.88;;
23578;SDS011;11967;50.852;4.400;2023-01-19T11:14:18;36.30;;;17.38;;
23578;SDS011;11967;50.852;4.400;2023-01-19T11:16:46;42.88;;;18.63;;
23578;SDS011;11967;50.852;4.400;2023-01-19T11:19:18;41.83;;;18.45;;
23578;SDS011;11967;50.852;4.400;2023-01-19T11:21:48;38.95;;;18.73;;
23578;SDS011;11967;50.852;4.400;2023-01-19T11:24:14;37.53;;;18.70;;
23578;SDS011;11967;50.852;4.400;2023-01-19T11:29:15;38.50;;;18.50;;
23578;SDS011;11967;50.852;4.400;2023-01-19T11:31:52;39.25;;;19.05;;
23578;SDS011;11967;50.852;4.400;2023-01-19T11:34:32;38.83;;;18.88;;
23578;SDS011;11967;50.852;4.400;2023-01-19T11:37:02;44.42;;;19.98;;
23578;SDS011;11967;50.852;4.400;2023-01-19T11:39:44;48.33;;;19.92;;
23578;SDS011;11967;50.852;4.400;2023-01-19T11:42:11;36.60;;;18.00;;
23578;SDS011;11967;50.852;4.400;2023-01-19T11:44:45;37.67;;;17.65;;
23578;SDS011;11967;50.852;4.400;2023-01-19T11:47:29;36.58;;;18.17;;
23578;SDS011;11967;50.852;4.400;2023-01-19T11:50:01;35.45;;;17.85;;
23578;SDS011;11967;50.852;4.400;2023-01-19T11:52:41;41.17;;;18.33;;
23578;SDS011;11967;50.852;4.400;2023-01-19T11:55:46;36.03;;;18.08;;
23578;SDS011;11967;50.852;4.400;2023-01-19T11:58:18;36.08;;;17.70;;
23578;SDS011;11967;50.852;4.400;2023-01-19T12:01:27;33.58;;;16.88;;
23578;SDS011;11967;50.852;4.400;2023-01-19T12:03:56;32.25;;;16.88;;
23578;SDS011;11967;50.852;4.400;2023-01-19T12:06:43;34.38;;;17.80;;
23578;SDS011;11967;50.852;4.400;2023-01-19T12:11:55;34.08;;;18.05;;
23578;SDS011;11967;50.852;4.400;2023-01-19T12:14:28;32.88;;;18.38;;
23578;SDS011;11967;50.852;4.400;2023-01-19T12:17:02;36.42;;;17.38;;
23578;SDS011;11967;50.852;4.400;2023-01-19T12:19:38;40.10;;;17.25;;
23578;SDS011;11967;50.852;4.400;2023-01-19T12:22:19;35.55;;;17.42;;
23578;SDS011;11967;50.852;4.400;2023-01-19T12:25:05;41.10;;;17.17;;
23578;SDS011;11967;50.852;4.400;2023-01-19T12:27:44;39.80;;;17.60;;
23578;SDS011;11967;50.852;4.400;2023-01-19T12:30:22;32.78;;;16.88;;
23578;SDS011;11967;50.852;4.400;2023-01-19T12:32:52;35.03;;;17.05;;
23578;SDS011;11967;50.852;4.400;2023-01-19T12:35:58;31.13;;;16.80;;
23578;SDS011;11967;50.852;4.400;2023-01-19T12:38:38;38.35;;;17.98;;
23578;SDS011;11967;50.852;4.400;2023-01-19T12:41:20;33.15;;;17.00;;
23578;SDS011;11967;50.852;4.400;2023-01-19T12:52:10;33.53;;;16.20;;
23578;SDS011;11967;50.852;4.400;2023-01-19T12:57:49;30.17;;;15.88;;
23578;SDS011;11967;50.852;4.400;2023-01-19T13:13:38;31.65;;;15.60;;
23578;SDS011;11967;50.852;4.400;2023-01-19T13:18:43;31.50;;;16.52;;
23578;SDS011;11967;50.852;4.400;2023-01-19T13:21:12;34.83;;;15.60;;
23578;SDS011;11967;50.852;4.400;2023-01-19T13:23:51;36.50;;;16.02;;
23578;SDS011;11967;50.852;4.400;2023-01-19T13:26:22;35.53;;;16.38;;
23578;SDS011;11967;50.852;4.400;2023-01-19T13:28:54;30.30;;;14.80;;
23578;SDS011;11967;50.852;4.400;2023-01-19T13:31:22;34.03;;;16.48;;
23578;SDS011;11967;50.852;4.400;2023-01-19T13:33:50;33.38;;;15.60;;
23578;SDS011;11967;50.852;4.400;2023-01-19T13:36:31;31.67;;;16.33;;
23578;SDS011;11967;50.852;4.400;2023-01-19T13:39:05;31.95;;;15.23;;
23578;SDS011;11967;50.852;4.400;2023-01-19T13:41:38;32.08;;;14.80;;
23578;SDS011;11967;50.852;4.400;2023-01-19T13:44:39;24.73;;;14.30;;
23578;SDS011;11967;50.852;4.400;2023-01-19T13:47:01;31.48;;;14.20;;
23578;SDS011;11967;50.852;4.400;2023-01-19T13:49:30;26.50;;;14.07;;
23578;SDS011;11967;50.852;4.400;2023-01-19T13:52:26;33.03;;;15.93;;
23578;SDS011;11967;50.852;4.400;2023-01-19T13:54:51;30.90;;;15.00;;
23578;SDS011;11967;50.852;4.400;2023-01-19T14:02:58;29.10;;;14.82;;
23578;SDS011;11967;50.852;4.400;2023-01-19T14:05:28;27.80;;;14.43;;
23578;SDS011;11967;50.852;4.400;2023-01-19T14:10:38;24.52;;;13.50;;
23578;SDS011;11967;50.852;4.400;2023-01-19T14:13:17;28.08;;;14.40;;
23578;SDS011;11967;50.852;4.400;2023-01-19T14:15:46;28.52;;;13.80;;
23578;SDS011;11967;50.852;4.400;2023-01-19T14:20:52;26.05;;;13.10;;
23578;SDS011;11967;50.852;4.400;2023-01-19T14:26:45;28.85;;;13.05;;
23578;SDS011;11967;50.852;4.400;2023-01-19T14:34:28;23.10;;;12.23;;
23578;SDS011;11967;50.852;4.400;2023-01-19T14:36:53;22.10;;;12.15;;
23578;SDS011;11967;50.852;4.400;2023-01-19T14:39:22;28.55;;;13.23;;
23578;SDS011;11967;50.852;4.400;2023-01-19T14:41:50;28.50;;;13.02;;
23578;SDS011;11967;50.852;4.400;2023-01-19T14:44:25;26.83;;;12.38;;
23578;SDS011;11967;50.852;4.400;2023-01-19T14:46:56;24.48;;;13.10;;
23578;SDS011;11967;50.852;4.400;2023-01-19T14:49:36;26.20;;;13.57;;
23578;SDS011;11967;50.852;4.400;2023-01-19T14:52:14;22.85;;;12.48;;
23578;SDS011;11967;50.852;4.400;2023-01-19T14:54:54;29.45;;;13.43;;
23578;SDS011;11967;50.852;4.400;2023-01-19T14:57:21;26.55;;;13.60;;
23578;SDS011;11967;50.852;4.400;2023-01-19T14:59:47;23.75;;;12.43;;
23578;SDS011;11967;50.852;4.400;2023-01-19T15:02:20;26.83;;;12.57;;
23578;SDS011;11967;50.852;4.400;2023-01-19T15:04:46;26.98;;;13.75;;
23578;SDS011;11967;50.852;4.400;2023-01-19T15:07:15;23.48;;;12.95;;
23578;SDS011;11967;50.852;4.400;2023-01-19T15:09:46;24.58;;;12.02;;
23578;SDS011;11967;50.852;4.400;2023-01-19T15:12:13;23.38;;;12.10;;
23578;SDS011;11967;50.852;4.400;2023-01-19T15:14:39;25.40;;;12.93;;
23578;SDS011;11967;50.852;4.400;2023-01-19T15:17:08;30.42;;;14.30;;
23578;SDS011;11967;50.852;4.400;2023-01-19T15:19:39;25.98;;;14.07;;
23578;SDS011;11967;50.852;4.400;2023-01-19T15:22:09;28.25;;;15.10;;
23578;SDS011;11967;50.852;4.400;2023-01-19T15:24:36;27.25;;;14.07;;
23578;SDS011;11967;50.852;4.400;2023-01-19T15:27:03;27.13;;;14.45;;
23578;SDS011;11967;50.852;4.400;2023-01-19T15:29:29;28.50;;;14.88;;
23578;SDS011;11967;50.852;4.400;2023-01-19T15:31:54;28.70;;;15.20;;
23578;SDS011;11967;50.852;4.400;2023-01-19T15:34:20;28.85;;;15.23;;
23578;SDS011;11967;50.852;4.400;2023-01-19T15:36:47;30.98;;;15.63;;
23578;SDS011;11967;50.852;4.400;2023-01-19T15:39:13;28.17;;;16.00;;
23578;SDS011;11967;50.852;4.400;2023-01-19T15:41:39;32.60;;;15.82;;
23578;SDS011;11967;50.852;4.400;2023-01-19T15:44:05;32.70;;;15.63;;
23578;SDS011;11967;50.852;4.400;2023-01-19T15:46:35;29.85;;;15.98;;
23578;SDS011;11967;50.852;4.400;2023-01-19T15:49:01;28.70;;;16.35;;
23578;SDS011;11967;50.852;4.400;2023-01-19T15:51:29;30.02;;;14.40;;
23578;SDS011;11967;50.852;4.400;2023-01-19T15:53:55;27.92;;;14.38;;
23578;SDS011;11967;50.852;4.400;2023-01-19T15:56:21;30.77;;;14.85;;
23578;SDS011;11967;50.852;4.400;2023-01-19T15:58:49;30.02;;;14.45;;
23578;SDS011;11967;50.852;4.400;2023-01-19T16:01:16;28.17;;;14.13;;